sensor_id;sensor_type;location;lat;lon;timestamp;P1;durP1;ratioP1;P2;durP2;ratioP2
15848;SDS011;8024;48.708;9.394;2023-05-07T00:01:44;2.50;;;2.30;;
15848;SDS011;8024;48.708;9.394;2023-05-07T00:04:13;3.33;;;2.40;;
15848;SDS011;8024;48.708;9.394;2023-05-07T00:06:40;2.50;;;2.30;;
15848;SDS011;8024;48.708;9.394;2023-05-07T00:09:07;3.10;;;2.80;;
15848;SDS011;8024;48.708;9.394;2023-05-07T00:11:34;2.77;;;2.57;;
15848;SDS011;8024;48.708;9.394;2023-05-07T00:14:01;3.00;;;2.37;;
15848;SDS011;8024;48.708;9.394;2023-05-07T00:16:29;3.43;;;2.67;;
15848;SDS011;8024;48.708;9.394;2023-05-07T00:18:56;4.80;;;3.40;;
15848;SDS011;8024;48.708;9.394;2023-05-07T00:21:24;5.70;;;3.77;;
15848;SDS011;8024;48.708;9.394;2023-05-07T00:23:52;3.90;;;3.50;;
15848;SDS011;8024;48.708;9.394;2023-05-07T00:26:19;4.20;;;3.20;;
15848;SDS011;8024;48.708;9.394;2023-05-07T00:28:46;5.07;;;3.40;;
15848;SDS011;8024;48.708;9.394;2023-05-07T00:31:13;3.10;;;2.90;;
15848;SDS011;8024;48.708;9.394;2023-05-07T00:33:41;3.23;;;2.93;;
15848;SDS011;8024;48.708;9.394;2023-05-07T00:36:08;2.80;;;2.70;;
15848;SDS011;8024;48.708;9.394;2023-05-07T00:38:37;3.40;;;2.80;;
15848;SDS011;8024;48.708;9.394;2023-05-07T00:41:04;3.37;;;2.17;;
15848;SDS011;8024;48.708;9.394;2023-05-07T00:43:31;2.73;;;2.53;;
15848;SDS011;8024;48.708;9.394;2023-05-07T00:45:58;4.60;;;3.00;;
15848;SDS011;8024;48.708;9.394;2023-05-07T00:48:26;2.80;;;2.60;;
15848;SDS011;8024;48.708;9.394;2023-05-07T00:50:53;2.83;;;2.63;;
15848;SDS011;8024;48.708;9.394;2023-05-07T00:53:20;3.70;;;2.67;;
15848;SDS011;8024;48.708;9.394;2023-05-07T00:55:49;5.00;;;3.20;;
15848;SDS011;8024;48.708;9.394;2023-05-07T00:58:17;3.80;;;3.50;;
15848;SDS011;8024;48.708;9.394;2023-05-07T01:00:44;3.10;;;2.90;;
15848;SDS011;8024;48.708;9.394;2023-05-07T01:03:11;5.63;;;3.53;;
15848;SDS011;8024;48.708;9.394;2023-05-07T01:05:39;3.47;;;3.17;;
15848;SDS011;8024;48.708;9.394;2023-05-07T01:08:06;3.17;;;2.97;;
15848;SDS011;8024;48.708;9.394;2023-05-07T01:10:35;3.33;;;3.03;;
15848;SDS011;8024;48.708;9.394;2023-05-07T01:13:04;3.63;;;2.87;;
15848;SDS011;8024;48.708;9.394;2023-05-07T01:15:31;2.67;;;2.47;;
15848;SDS011;8024;48.708;9.394;2023-05-07T01:17:59;2.73;;;2.53;;
15848;SDS011;8024;48.708;9.394;2023-05-07T01:20:26;3.40;;;3.17;;
15848;SDS011;8024;48.708;9.394;2023-05-07T01:22:55;5.07;;;3.07;;
15848;SDS011;8024;48.708;9.394;2023-05-07T01:25:24;3.03;;;2.80;;
15848;SDS011;8024;48.708;9.394;2023-05-07T01:27:51;4.27;;;2.63;;
15848;SDS011;8024;48.708;9.394;2023-05-07T01:30:18;3.90;;;2.80;;
15848;SDS011;8024;48.708;9.394;2023-05-07T01:32:48;2.90;;;2.70;;
15848;SDS011;8024;48.708;9.394;2023-05-07T01:35:19;5.10;;;3.00;;
15848;SDS011;8024;48.708;9.394;2023-05-07T01:37:50;3.10;;;2.80;;
15848;SDS011;8024;48.708;9.394;2023-05-07T01:40:19;4.47;;;3.17;;
15848;SDS011;8024;48.708;9.394;2023-05-07T01:42:46;4.10;;;3.13;;
15848;SDS011;8024;48.708;9.394;2023-05-07T01:45:14;3.53;;;2.80;;
15848;SDS011;8024;48.708;9.394;2023-05-07T01:47:41;3.10;;;2.80;;
15848;SDS011;8024;48.708;9.394;2023-05-07T01:50:09;3.10;;;2.77;;
15848;SDS011;8024;48.708;9.394;2023-05-07T01:52:37;2.93;;;2.53;;
15848;SDS011;8024;48.708;9.394;2023-05-07T01:55:05;2.87;;;2.50;;
15848;SDS011;8024;48.708;9.394;2023-05-07T01:57:34;7.63;;;3.63;;
15848;SDS011;8024;48.708;9.394;2023-05-07T02:00:02;2.70;;;2.50;;
15848;SDS011;8024;48.708;9.394;2023-05-07T02:02:30;3.17;;;2.97;;
15848;SDS011;8024;48.708;9.394;2023-05-07T02:04:57;3.57;;;3.27;;
15848;SDS011;8024;48.708;9.394;2023-05-07T02:07:25;3.37;;;2.80;;
15848;SDS011;8024;48.708;9.394;2023-05-07T02:09:52;2.80;;;2.60;;
15848;SDS011;8024;48.708;9.394;2023-05-07T02:12:20;2.40;;;2.30;;
15848;SDS011;8024;48.708;9.394;2023-05-07T02:14:49;2.90;;;2.70;;
15848;SDS011;8024;48.708;9.394;2023-05-07T02:17:16;3.03;;;2.83;;
15848;SDS011;8024;48.708;9.394;2023-05-07T02:19:43;4.63;;;3.23;;
15848;SDS011;8024;48.708;9.394;2023-05-07T02:22:10;4.20;;;3.00;;
15848;SDS011;8024;48.708;9.394;2023-05-07T02:24:37;5.03;;;2.83;;
15848;SDS011;8024;48.708;9.394;2023-05-07T02:27:04;3.07;;;2.77;;
15848;SDS011;8024;48.708;9.394;2023-05-07T02:29:32;3.03;;;2.77;;
15848;SDS011;8024;48.708;9.394;2023-05-07T02:32:00;3.63;;;2.70;;
15848;SDS011;8024;48.708;9.394;2023-05-07T02:34:27;2.93;;;2.47;;
15848;SDS011;8024;48.708;9.394;2023-05-07T02:36:54;2.77;;;2.50;;
15848;SDS011;8024;48.708;9.394;2023-05-07T02:39:21;2.70;;;2.60;;
15848;SDS011;8024;48.708;9.394;2023-05-07T02:41:48;3.10;;;2.67;;
15848;SDS011;8024;48.708;9.394;2023-05-07T02:44:16;3.37;;;2.83;;
15848;SDS011;8024;48.708;9.394;2023-05-07T02:46:43;4.10;;;2.57;;
15848;SDS011;8024;48.708;9.394;2023-05-07T02:49:11;5.33;;;2.57;;
15848;SDS011;8024;48.708;9.394;2023-05-07T02:51:38;3.07;;;2.67;;
15848;SDS011;8024;48.708;9.394;2023-05-07T02:54:05;4.73;;;2.93;;
15848;SDS011;8024;48.708;9.394;2023-05-07T02:56:33;3.47;;;2.73;;
15848;SDS011;8024;48.708;9.394;2023-05-07T02:59:00;3.33;;;2.90;;
15848;SDS011;8024;48.708;9.394;2023-05-07T03:01:27;5.33;;;3.10;;
15848;SDS011;8024;48.708;9.394;2023-05-07T03:03:54;3.63;;;2.90;;
15848;SDS011;8024;48.708;9.394;2023-05-07T03:06:23;4.63;;;3.43;;
15848;SDS011;8024;48.708;9.394;2023-05-07T03:08:51;3.17;;;2.87;;
15848;SDS011;8024;48.708;9.394;2023-05-07T03:11:18;3.50;;;3.20;;
15848;SDS011;8024;48.708;9.394;2023-05-07T03:13:45;4.40;;;2.93;;
15848;SDS011;8024;48.708;9.394;2023-05-07T03:16:15;3.20;;;3.00;;
15848;SDS011;8024;48.708;9.394;2023-05-07T03:18:42;3.87;;;3.20;;
15848;SDS011;8024;48.708;9.394;2023-05-07T03:21:09;3.47;;;3.17;;
15848;SDS011;8024;48.708;9.394;2023-05-07T03:23:38;4.93;;;3.50;;
15848;SDS011;8024;48.708;9.394;2023-05-07T03:26:05;4.37;;;3.27;;
15848;SDS011;8024;48.708;9.394;2023-05-07T03:28:32;4.07;;;3.43;;
15848;SDS011;8024;48.708;9.394;2023-05-07T03:30:59;6.27;;;3.17;;
15848;SDS011;8024;48.708;9.394;2023-05-07T03:33:27;5.00;;;3.00;;
15848;SDS011;8024;48.708;9.394;2023-05-07T03:35:54;3.17;;;2.60;;
15848;SDS011;8024;48.708;9.394;2023-05-07T03:38:21;2.90;;;2.60;;
15848;SDS011;8024;48.708;9.394;2023-05-07T03:40:49;3.50;;;2.90;;
15848;SDS011;8024;48.708;9.394;2023-05-07T03:43:17;2.93;;;2.57;;
15848;SDS011;8024;48.708;9.394;2023-05-07T03:45:44;2.90;;;2.50;;
15848;SDS011;8024;48.708;9.394;2023-05-07T03:48:11;3.30;;;3.10;;
15848;SDS011;8024;48.708;9.394;2023-05-07T03:50:38;4.73;;;2.73;;
15848;SDS011;8024;48.708;9.394;2023-05-07T03:53:05;2.67;;;2.57;;
15848;SDS011;8024;48.708;9.394;2023-05-07T03:55:32;3.50;;;2.83;;
15848;SDS011;8024;48.708;9.394;2023-05-07T03:58:01;2.83;;;2.63;;
15848;SDS011;8024;48.708;9.394;2023-05-07T04:00:29;3.00;;;2.80;;
15848;SDS011;8024;48.708;9.394;2023-05-07T04:02:58;3.47;;;2.77;;
15848;SDS011;8024;48.708;9.394;2023-05-07T04:05:25;3.07;;;2.60;;
15848;SDS011;8024;48.708;9.394;2023-05-07T04:07:53;2.63;;;2.50;;
15848;SDS011;8024;48.708;9.394;2023-05-07T04:10:20;4.27;;;3.07;;
15848;SDS011;8024;48.708;9.394;2023-05-07T04:12:47;3.00;;;2.80;;
15848;SDS011;8024;48.708;9.394;2023-05-07T04:15:15;2.83;;;2.63;;
15848;SDS011;8024;48.708;9.394;2023-05-07T04:17:43;2.70;;;2.50;;
15848;SDS011;8024;48.708;9.394;2023-05-07T04:20:10;2.77;;;2.43;;
15848;SDS011;8024;48.708;9.394;2023-05-07T04:22:40;3.63;;;3.33;;
15848;SDS011;8024;48.708;9.394;2023-05-07T04:25:07;3.67;;;3.33;;
15848;SDS011;8024;48.708;9.394;2023-05-07T04:27:35;3.27;;;3.00;;
15848;SDS011;8024;48.708;9.394;2023-05-07T04:30:02;4.73;;;2.83;;
15848;SDS011;8024;48.708;9.394;2023-05-07T04:32:33;3.10;;;2.80;;
15848;SDS011;8024;48.708;9.394;2023-05-07T04:35:01;3.47;;;3.17;;
15848;SDS011;8024;48.708;9.394;2023-05-07T04:37:28;4.17;;;3.20;;
15848;SDS011;8024;48.708;9.394;2023-05-07T04:39:57;2.90;;;2.70;;
15848;SDS011;8024;48.708;9.394;2023-05-07T04:42:25;4.07;;;2.73;;
15848;SDS011;8024;48.708;9.394;2023-05-07T04:44:52;3.53;;;3.23;;
15848;SDS011;8024;48.708;9.394;2023-05-07T04:47:20;4.57;;;4.10;;
15848;SDS011;8024;48.708;9.394;2023-05-07T04:49:48;2.93;;;2.73;;
15848;SDS011;8024;48.708;9.394;2023-05-07T04:52:15;4.47;;;3.30;;
15848;SDS011;8024;48.708;9.394;2023-05-07T04:54:42;4.03;;;3.63;;
15848;SDS011;8024;48.708;9.394;2023-05-07T04:57:10;3.43;;;3.10;;
15848;SDS011;8024;48.708;9.394;2023-05-07T04:59:37;3.30;;;2.90;;
15848;SDS011;8024;48.708;9.394;2023-05-07T05:02:04;3.73;;;3.43;;
15848;SDS011;8024;48.708;9.394;2023-05-07T05:04:31;4.50;;;3.40;;
15848;SDS011;8024;48.708;9.394;2023-05-07T05:07:00;3.83;;;3.27;;
15848;SDS011;8024;48.708;9.394;2023-05-07T05:09:28;3.43;;;3.10;;
15848;SDS011;8024;48.708;9.394;2023-05-07T05:11:55;3.63;;;3.00;;
15848;SDS011;8024;48.708;9.394;2023-05-07T05:14:23;4.10;;;3.70;;
15848;SDS011;8024;48.708;9.394;2023-05-07T05:16:50;2.90;;;2.70;;
15848;SDS011;8024;48.708;9.394;2023-05-07T05:19:17;3.27;;;2.87;;
15848;SDS011;8024;48.708;9.394;2023-05-07T05:21:44;3.60;;;3.03;;
15848;SDS011;8024;48.708;9.394;2023-05-07T05:24:12;3.67;;;3.23;;
15848;SDS011;8024;48.708;9.394;2023-05-07T05:26:40;3.33;;;3.07;;
15848;SDS011;8024;48.708;9.394;2023-05-07T05:29:07;3.93;;;3.63;;
15848;SDS011;8024;48.708;9.394;2023-05-07T05:31:34;3.70;;;3.40;;
15848;SDS011;8024;48.708;9.394;2023-05-07T05:34:02;2.93;;;2.73;;
15848;SDS011;8024;48.708;9.394;2023-05-07T05:36:29;2.90;;;2.70;;
15848;SDS011;8024;48.708;9.394;2023-05-07T05:38:56;3.73;;;3.17;;
15848;SDS011;8024;48.708;9.394;2023-05-07T05:41:25;3.37;;;3.17;;
15848;SDS011;8024;48.708;9.394;2023-05-07T05:43:52;3.10;;;2.90;;
15848;SDS011;8024;48.708;9.394;2023-05-07T05:46:19;3.33;;;2.90;;
15848;SDS011;8024;48.708;9.394;2023-05-07T05:48:46;3.47;;;3.17;;
15848;SDS011;8024;48.708;9.394;2023-05-07T05:51:13;4.63;;;3.87;;
15848;SDS011;8024;48.708;9.394;2023-05-07T05:53:40;4.60;;;3.13;;
15848;SDS011;8024;48.708;9.394;2023-05-07T05:56:07;3.73;;;3.30;;
15848;SDS011;8024;48.708;9.394;2023-05-07T05:58:36;3.67;;;2.60;;
15848;SDS011;8024;48.708;9.394;2023-05-07T06:01:03;3.57;;;2.83;;
15848;SDS011;8024;48.708;9.394;2023-05-07T06:03:30;2.93;;;2.57;;
15848;SDS011;8024;48.708;9.394;2023-05-07T06:05:58;4.20;;;2.67;;
15848;SDS011;8024;48.708;9.394;2023-05-07T06:08:25;4.27;;;2.87;;
15848;SDS011;8024;48.708;9.394;2023-05-07T06:10:55;2.80;;;2.60;;
15848;SDS011;8024;48.708;9.394;2023-05-07T06:13:22;5.20;;;2.67;;
15848;SDS011;8024;48.708;9.394;2023-05-07T06:15:51;4.50;;;3.17;;
15848;SDS011;8024;48.708;9.394;2023-05-07T06:18:18;3.83;;;2.67;;
15848;SDS011;8024;48.708;9.394;2023-05-07T06:20:45;2.67;;;2.47;;
15848;SDS011;8024;48.708;9.394;2023-05-07T06:23:12;2.70;;;2.50;;
15848;SDS011;8024;48.708;9.394;2023-05-07T06:25:40;5.33;;;2.80;;
15848;SDS011;8024;48.708;9.394;2023-05-07T06:28:07;3.93;;;3.07;;
15848;SDS011;8024;48.708;9.394;2023-05-07T06:30:36;2.40;;;2.30;;
15848;SDS011;8024;48.708;9.394;2023-05-07T06:33:04;3.13;;;2.60;;
15848;SDS011;8024;48.708;9.394;2023-05-07T06:35:32;3.47;;;2.50;;
15848;SDS011;8024;48.708;9.394;2023-05-07T06:37:59;3.77;;;2.67;;
15848;SDS011;8024;48.708;9.394;2023-05-07T06:40:26;2.90;;;2.70;;
15848;SDS011;8024;48.708;9.394;2023-05-07T06:42:54;3.07;;;2.73;;
15848;SDS011;8024;48.708;9.394;2023-05-07T06:45:21;3.03;;;2.77;;
15848;SDS011;8024;48.708;9.394;2023-05-07T06:47:48;2.77;;;2.57;;
15848;SDS011;8024;48.708;9.394;2023-05-07T06:50:17;2.53;;;2.33;;
15848;SDS011;8024;48.708;9.394;2023-05-07T06:52:44;2.90;;;2.43;;
15848;SDS011;8024;48.708;9.394;2023-05-07T06:55:12;2.60;;;2.40;;
15848;SDS011;8024;48.708;9.394;2023-05-07T06:57:39;2.70;;;2.13;;
15848;SDS011;8024;48.708;9.394;2023-05-07T07:00:07;4.10;;;2.63;;
15848;SDS011;8024;48.708;9.394;2023-05-07T07:02:34;2.87;;;1.70;;
15848;SDS011;8024;48.708;9.394;2023-05-07T07:05:02;2.30;;;2.13;;
15848;SDS011;8024;48.708;9.394;2023-05-07T07:07:31;2.30;;;2.10;;
15848;SDS011;8024;48.708;9.394;2023-05-07T07:09:58;2.30;;;1.93;;
15848;SDS011;8024;48.708;9.394;2023-05-07T07:12:25;2.63;;;2.43;;
15848;SDS011;8024;48.708;9.394;2023-05-07T07:14:53;4.40;;;2.50;;
15848;SDS011;8024;48.708;9.394;2023-05-07T07:17:21;2.90;;;2.70;;
15848;SDS011;8024;48.708;9.394;2023-05-07T07:19:48;2.20;;;2.07;;
15848;SDS011;8024;48.708;9.394;2023-05-07T07:22:15;2.43;;;2.03;;
15848;SDS011;8024;48.708;9.394;2023-05-07T07:24:44;2.10;;;2.00;;
15848;SDS011;8024;48.708;9.394;2023-05-07T07:27:11;4.47;;;2.20;;
15848;SDS011;8024;48.708;9.394;2023-05-07T07:29:38;2.53;;;2.30;;
15848;SDS011;8024;48.708;9.394;2023-05-07T07:32:05;2.63;;;2.47;;
15848;SDS011;8024;48.708;9.394;2023-05-07T07:34:32;2.63;;;2.43;;
15848;SDS011;8024;48.708;9.394;2023-05-07T07:36:59;2.43;;;2.23;;
15848;SDS011;8024;48.708;9.394;2023-05-07T07:39:30;2.33;;;2.13;;
15848;SDS011;8024;48.708;9.394;2023-05-07T07:41:58;2.53;;;2.33;;
15848;SDS011;8024;48.708;9.394;2023-05-07T07:44:27;1.80;;;1.70;;
15848;SDS011;8024;48.708;9.394;2023-05-07T07:46:54;3.03;;;2.10;;
15848;SDS011;8024;48.708;9.394;2023-05-07T07:49:21;2.67;;;2.47;;
15848;SDS011;8024;48.708;9.394;2023-05-07T07:51:48;2.17;;;1.67;;
15848;SDS011;8024;48.708;9.394;2023-05-07T07:54:16;3.23;;;1.67;;
15848;SDS011;8024;48.708;9.394;2023-05-07T07:56:43;2.10;;;1.90;;
15848;SDS011;8024;48.708;9.394;2023-05-07T07:59:11;2.67;;;1.80;;
15848;SDS011;8024;48.708;9.394;2023-05-07T08:01:42;2.23;;;1.83;;
15848;SDS011;8024;48.708;9.394;2023-05-07T08:04:09;2.00;;;1.90;;
15848;SDS011;8024;48.708;9.394;2023-05-07T08:06:37;3.67;;;2.37;;
15848;SDS011;8024;48.708;9.394;2023-05-07T08:09:04;2.27;;;2.17;;
15848;SDS011;8024;48.708;9.394;2023-05-07T08:11:31;2.33;;;2.13;;
15848;SDS011;8024;48.708;9.394;2023-05-07T08:13:58;2.00;;;1.90;;
15848;SDS011;8024;48.708;9.394;2023-05-07T08:16:27;2.03;;;1.83;;
15848;SDS011;8024;48.708;9.394;2023-05-07T08:18:54;3.13;;;1.80;;
15848;SDS011;8024;48.708;9.394;2023-05-07T08:21:21;2.10;;;2.00;;
15848;SDS011;8024;48.708;9.394;2023-05-07T08:23:49;2.83;;;2.07;;
15848;SDS011;8024;48.708;9.394;2023-05-07T08:26:16;2.27;;;2.10;;
15848;SDS011;8024;48.708;9.394;2023-05-07T08:28:43;2.43;;;2.20;;
15848;SDS011;8024;48.708;9.394;2023-05-07T08:31:10;2.10;;;2.00;;
15848;SDS011;8024;48.708;9.394;2023-05-07T08:33:39;2.47;;;1.83;;
15848;SDS011;8024;48.708;9.394;2023-05-07T08:36:06;1.97;;;1.87;;
15848;SDS011;8024;48.708;9.394;2023-05-07T08:38:33;3.20;;;2.40;;
15848;SDS011;8024;48.708;9.394;2023-05-07T08:41:00;2.43;;;2.23;;
15848;SDS011;8024;48.708;9.394;2023-05-07T08:43:28;1.90;;;1.80;;
15848;SDS011;8024;48.708;9.394;2023-05-07T08:45:57;2.70;;;2.17;;
15848;SDS011;8024;48.708;9.394;2023-05-07T08:48:27;3.10;;;2.80;;
15848;SDS011;8024;48.708;9.394;2023-05-07T08:50:58;2.53;;;2.30;;
15848;SDS011;8024;48.708;9.394;2023-05-07T08:53:25;2.63;;;2.43;;
15848;SDS011;8024;48.708;9.394;2023-05-07T08:55:53;2.70;;;2.57;;
15848;SDS011;8024;48.708;9.394;2023-05-07T08:58:21;2.33;;;2.00;;
15848;SDS011;8024;48.708;9.394;2023-05-07T09:00:48;2.80;;;2.60;;
15848;SDS011;8024;48.708;9.394;2023-05-07T09:03:16;3.50;;;2.63;;
15848;SDS011;8024;48.708;9.394;2023-05-07T09:05:43;2.80;;;2.50;;
15848;SDS011;8024;48.708;9.394;2023-05-07T09:08:14;2.97;;;2.10;;
15848;SDS011;8024;48.708;9.394;2023-05-07T09:10:41;1.87;;;1.87;;
15848;SDS011;8024;48.708;9.394;2023-05-07T09:13:09;2.03;;;1.93;;
15848;SDS011;8024;48.708;9.394;2023-05-07T09:15:38;2.23;;;2.03;;
15848;SDS011;8024;48.708;9.394;2023-05-07T09:18:05;2.97;;;2.30;;
15848;SDS011;8024;48.708;9.394;2023-05-07T09:20:32;2.30;;;1.70;;
15848;SDS011;8024;48.708;9.394;2023-05-07T09:22:59;1.83;;;1.70;;
15848;SDS011;8024;48.708;9.394;2023-05-07T09:25:31;2.53;;;2.43;;
15848;SDS011;8024;48.708;9.394;2023-05-07T09:28:00;2.53;;;2.30;;
15848;SDS011;8024;48.708;9.394;2023-05-07T09:30:28;2.23;;;1.80;;
15848;SDS011;8024;48.708;9.394;2023-05-07T09:32:56;2.17;;;1.57;;
15848;SDS011;8024;48.708;9.394;2023-05-07T09:35:24;2.27;;;2.07;;
15848;SDS011;8024;48.708;9.394;2023-05-07T09:37:52;2.33;;;2.13;;
15848;SDS011;8024;48.708;9.394;2023-05-07T09:40:20;2.33;;;2.10;;
15848;SDS011;8024;48.708;9.394;2023-05-07T09:42:49;2.60;;;1.70;;
15848;SDS011;8024;48.708;9.394;2023-05-07T09:45:16;2.57;;;1.73;;
15848;SDS011;8024;48.708;9.394;2023-05-07T09:47:49;2.27;;;1.90;;
15848;SDS011;8024;48.708;9.394;2023-05-07T09:50:21;1.80;;;1.60;;
15848;SDS011;8024;48.708;9.394;2023-05-07T09:52:52;2.70;;;1.90;;
15848;SDS011;8024;48.708;9.394;2023-05-07T09:55:21;2.87;;;1.77;;
15848;SDS011;8024;48.708;9.394;2023-05-07T09:57:50;1.93;;;1.47;;
15848;SDS011;8024;48.708;9.394;2023-05-07T10:00:19;1.67;;;1.53;;
15848;SDS011;8024;48.708;9.394;2023-05-07T10:02:47;1.97;;;1.57;;
15848;SDS011;8024;48.708;9.394;2023-05-07T10:05:16;2.30;;;1.73;;
15848;SDS011;8024;48.708;9.394;2023-05-07T10:07:45;1.80;;;1.70;;
15848;SDS011;8024;48.708;9.394;2023-05-07T10:10:13;2.23;;;1.77;;
15848;SDS011;8024;48.708;9.394;2023-05-07T10:12:41;2.07;;;1.60;;
15848;SDS011;8024;48.708;9.394;2023-05-07T10:15:10;2.57;;;1.67;;
15848;SDS011;8024;48.708;9.394;2023-05-07T10:17:39;3.23;;;1.53;;
15848;SDS011;8024;48.708;9.394;2023-05-07T10:20:07;2.57;;;1.57;;
15848;SDS011;8024;48.708;9.394;2023-05-07T10:22:37;2.73;;;1.20;;
15848;SDS011;8024;48.708;9.394;2023-05-07T10:25:09;4.33;;;1.63;;
15848;SDS011;8024;48.708;9.394;2023-05-07T10:27:43;1.57;;;1.50;;
15848;SDS011;8024;48.708;9.394;2023-05-07T10:30:15;1.50;;;1.40;;
15848;SDS011;8024;48.708;9.394;2023-05-07T10:32:53;2.63;;;2.03;;
15848;SDS011;8024;48.708;9.394;2023-05-07T10:35:24;2.57;;;1.10;;
15848;SDS011;8024;48.708;9.394;2023-05-07T10:37:52;1.30;;;1.20;;
15848;SDS011;8024;48.708;9.394;2023-05-07T10:40:20;3.10;;;1.17;;
15848;SDS011;8024;48.708;9.394;2023-05-07T10:42:54;1.00;;;1.00;;
15848;SDS011;8024;48.708;9.394;2023-05-07T10:45:23;1.20;;;1.10;;
15848;SDS011;8024;48.708;9.394;2023-05-07T10:48:10;2.33;;;1.27;;
15848;SDS011;8024;48.708;9.394;2023-05-07T10:50:38;1.63;;;1.30;;
15848;SDS011;8024;48.708;9.394;2023-05-07T11:02:07;2.10;;;1.03;;
15848;SDS011;8024;48.708;9.394;2023-05-07T11:04:36;1.40;;;0.90;;
15848;SDS011;8024;48.708;9.394;2023-05-07T11:09:59;2.70;;;1.30;;
15848;SDS011;8024;48.708;9.394;2023-05-07T11:18:08;1.27;;;0.70;;
15848;SDS011;8024;48.708;9.394;2023-05-07T11:20:49;2.43;;;1.00;;
15848;SDS011;8024;48.708;9.394;2023-05-07T11:26:25;0.80;;;0.80;;
15848;SDS011;8024;48.708;9.394;2023-05-07T11:28:53;0.93;;;0.70;;
15848;SDS011;8024;48.708;9.394;2023-05-07T11:31:22;0.90;;;0.70;;
15848;SDS011;8024;48.708;9.394;2023-05-07T11:33:53;1.30;;;1.20;;
15848;SDS011;8024;48.708;9.394;2023-05-07T11:36:21;1.63;;;0.90;;
15848;SDS011;8024;48.708;9.394;2023-05-07T11:38:50;1.40;;;1.07;;
15848;SDS011;8024;48.708;9.394;2023-05-07T11:41:20;1.53;;;1.07;;
15848;SDS011;8024;48.708;9.394;2023-05-07T11:43:59;0.80;;;0.73;;
15848;SDS011;8024;48.708;9.394;2023-05-07T11:46:27;1.00;;;0.90;;
15848;SDS011;8024;48.708;9.394;2023-05-07T11:48:55;1.20;;;1.10;;
15848;SDS011;8024;48.708;9.394;2023-05-07T11:51:24;1.20;;;1.00;;
15848;SDS011;8024;48.708;9.394;2023-05-07T11:53:52;2.17;;;1.27;;
15848;SDS011;8024;48.708;9.394;2023-05-07T11:56:20;1.58;;;1.15;;
15848;SDS011;8024;48.708;9.394;2023-05-07T11:58:47;1.38;;;0.90;;
15848;SDS011;8024;48.708;9.394;2023-05-07T12:01:16;1.15;;;1.00;;
15848;SDS011;8024;48.708;9.394;2023-05-07T12:03:44;2.10;;;0.80;;
15848;SDS011;8024;48.708;9.394;2023-05-07T12:06:14;1.63;;;0.90;;
15848;SDS011;8024;48.708;9.394;2023-05-07T12:08:42;1.27;;;1.23;;
15848;SDS011;8024;48.708;9.394;2023-05-07T12:11:13;1.08;;;1.08;;
15848;SDS011;8024;48.708;9.394;2023-05-07T12:13:42;1.80;;;0.77;;
15848;SDS011;8024;48.708;9.394;2023-05-07T12:16:09;1.50;;;1.00;;
15848;SDS011;8024;48.708;9.394;2023-05-07T12:18:38;1.10;;;0.97;;
15848;SDS011;8024;48.708;9.394;2023-05-07T12:21:06;2.43;;;1.00;;
15848;SDS011;8024;48.708;9.394;2023-05-07T12:23:35;1.97;;;0.70;;
15848;SDS011;8024;48.708;9.394;2023-05-07T12:26:03;1.33;;;1.00;;
15848;SDS011;8024;48.708;9.394;2023-05-07T12:28:31;0.90;;;0.90;;
15848;SDS011;8024;48.708;9.394;2023-05-07T12:31:03;2.20;;;0.97;;
15848;SDS011;8024;48.708;9.394;2023-05-07T12:33:30;0.83;;;0.70;;
15848;SDS011;8024;48.708;9.394;2023-05-07T12:35:58;0.57;;;0.53;;
15848;SDS011;8024;48.708;9.394;2023-05-07T12:38:32;2.07;;;0.90;;
15848;SDS011;8024;48.708;9.394;2023-05-07T12:41:06;0.87;;;0.60;;
15848;SDS011;8024;48.708;9.394;2023-05-07T12:43:33;1.33;;;0.63;;
15848;SDS011;8024;48.708;9.394;2023-05-07T12:46:01;0.73;;;0.73;;
15848;SDS011;8024;48.708;9.394;2023-05-07T12:48:30;1.57;;;0.80;;
15848;SDS011;8024;48.708;9.394;2023-05-07T12:50:58;0.80;;;0.53;;
15848;SDS011;8024;48.708;9.394;2023-05-07T12:53:27;1.17;;;0.70;;
15848;SDS011;8024;48.708;9.394;2023-05-07T12:55:57;0.90;;;0.50;;
15848;SDS011;8024;48.708;9.394;2023-05-07T12:58:26;1.33;;;0.70;;
15848;SDS011;8024;48.708;9.394;2023-05-07T13:00:54;0.77;;;0.77;;
15848;SDS011;8024;48.708;9.394;2023-05-07T13:03:24;1.73;;;0.70;;
15848;SDS011;8024;48.708;9.394;2023-05-07T13:05:52;1.63;;;0.87;;
15848;SDS011;8024;48.708;9.394;2023-05-07T13:08:24;1.10;;;1.00;;
15848;SDS011;8024;48.708;9.394;2023-05-07T13:10:52;2.63;;;0.90;;
15848;SDS011;8024;48.708;9.394;2023-05-07T13:13:21;2.07;;;1.17;;
15848;SDS011;8024;48.708;9.394;2023-05-07T13:15:48;1.13;;;1.03;;
15848;SDS011;8024;48.708;9.394;2023-05-07T13:18:15;2.30;;;1.30;;
15848;SDS011;8024;48.708;9.394;2023-05-07T13:20:43;2.77;;;1.27;;
15848;SDS011;8024;48.708;9.394;2023-05-07T13:23:10;2.37;;;1.40;;
15848;SDS011;8024;48.708;9.394;2023-05-07T13:25:37;2.47;;;1.30;;
15848;SDS011;8024;48.708;9.394;2023-05-07T13:28:04;2.70;;;1.97;;
15848;SDS011;8024;48.708;9.394;2023-05-07T13:30:33;2.53;;;2.20;;
15848;SDS011;8024;48.708;9.394;2023-05-07T13:33:00;3.60;;;2.30;;
15848;SDS011;8024;48.708;9.394;2023-05-07T13:35:28;3.57;;;2.60;;
15848;SDS011;8024;48.708;9.394;2023-05-07T13:37:55;1.90;;;1.80;;
15848;SDS011;8024;48.708;9.394;2023-05-07T13:40:22;2.77;;;2.00;;
15848;SDS011;8024;48.708;9.394;2023-05-07T13:42:49;3.47;;;2.13;;
15848;SDS011;8024;48.708;9.394;2023-05-07T13:45:17;2.70;;;2.00;;
15848;SDS011;8024;48.708;9.394;2023-05-07T13:47:46;2.20;;;1.93;;
15848;SDS011;8024;48.708;9.394;2023-05-07T13:50:14;2.83;;;1.90;;
15848;SDS011;8024;48.708;9.394;2023-05-07T13:52:42;3.27;;;1.90;;
15848;SDS011;8024;48.708;9.394;2023-05-07T13:55:15;4.27;;;1.70;;
15848;SDS011;8024;48.708;9.394;2023-05-07T13:57:43;2.03;;;1.43;;
15848;SDS011;8024;48.708;9.394;2023-05-07T14:00:11;1.43;;;1.20;;
15848;SDS011;8024;48.708;9.394;2023-05-07T14:02:38;1.57;;;1.40;;
15848;SDS011;8024;48.708;9.394;2023-05-07T14:05:08;1.57;;;1.30;;
15848;SDS011;8024;48.708;9.394;2023-05-07T14:07:35;1.77;;;1.67;;
15848;SDS011;8024;48.708;9.394;2023-05-07T14:10:02;3.03;;;1.50;;
15848;SDS011;8024;48.708;9.394;2023-05-07T14:12:31;4.10;;;1.90;;
15848;SDS011;8024;48.708;9.394;2023-05-07T14:14:58;3.20;;;2.23;;
15848;SDS011;8024;48.708;9.394;2023-05-07T14:17:25;1.13;;;1.10;;
15848;SDS011;8024;48.708;9.394;2023-05-07T14:19:52;2.40;;;1.30;;
15848;SDS011;8024;48.708;9.394;2023-05-07T14:22:22;8.40;;;2.53;;
15848;SDS011;8024;48.708;9.394;2023-05-07T14:24:49;3.97;;;1.10;;
15848;SDS011;8024;48.708;9.394;2023-05-07T14:27:16;2.70;;;1.40;;
15848;SDS011;8024;48.708;9.394;2023-05-07T14:29:44;3.33;;;1.50;;
15848;SDS011;8024;48.708;9.394;2023-05-07T14:32:15;2.40;;;1.40;;
15848;SDS011;8024;48.708;9.394;2023-05-07T14:34:43;7.90;;;1.70;;
15848;SDS011;8024;48.708;9.394;2023-05-07T14:37:11;2.23;;;1.67;;
15848;SDS011;8024;48.708;9.394;2023-05-07T14:39:40;3.00;;;2.10;;
15848;SDS011;8024;48.708;9.394;2023-05-07T14:42:07;3.17;;;2.63;;
15848;SDS011;8024;48.708;9.394;2023-05-07T14:44:34;6.97;;;3.03;;
15848;SDS011;8024;48.708;9.394;2023-05-07T14:47:01;7.10;;;2.60;;
15848;SDS011;8024;48.708;9.394;2023-05-07T14:49:29;5.43;;;3.43;;
15848;SDS011;8024;48.708;9.394;2023-05-07T14:51:56;2.90;;;2.60;;
15848;SDS011;8024;48.708;9.394;2023-05-07T14:54:24;6.13;;;3.23;;
15848;SDS011;8024;48.708;9.394;2023-05-07T14:56:53;5.37;;;3.97;;
15848;SDS011;8024;48.708;9.394;2023-05-07T14:59:20;6.93;;;3.40;;
15848;SDS011;8024;48.708;9.394;2023-05-07T15:01:50;3.80;;;3.00;;
15848;SDS011;8024;48.708;9.394;2023-05-07T15:04:17;6.43;;;3.60;;
15848;SDS011;8024;48.708;9.394;2023-05-07T15:06:44;4.27;;;3.40;;
15848;SDS011;8024;48.708;9.394;2023-05-07T15:09:12;4.70;;;4.30;;
15848;SDS011;8024;48.708;9.394;2023-05-07T15:11:39;6.87;;;3.67;;
15848;SDS011;8024;48.708;9.394;2023-05-07T15:14:07;5.33;;;3.20;;
15848;SDS011;8024;48.708;9.394;2023-05-07T15:16:35;6.77;;;3.97;;
15848;SDS011;8024;48.708;9.394;2023-05-07T15:19:02;5.33;;;2.93;;
15848;SDS011;8024;48.708;9.394;2023-05-07T15:21:29;6.57;;;3.87;;
15848;SDS011;8024;48.708;9.394;2023-05-07T15:23:59;5.90;;;3.77;;
15848;SDS011;8024;48.708;9.394;2023-05-07T15:26:26;4.23;;;3.83;;